sensor_id;sensor_type;location;lat;lon;timestamp;P1;durP1;ratioP1;P2;durP2;ratioP2
16101;SDS011;56411;52.964;10.540;2022-08-03T00:01:41;10.80;;;6.00;;
16101;SDS011;56411;52.964;10.540;2022-08-03T00:04:08;10.57;;;6.00;;
16101;SDS011;56411;52.964;10.540;2022-08-03T00:06:36;10.65;;;5.90;;
16101;SDS011;56411;52.964;10.540;2022-08-03T00:09:04;10.10;;;5.75;;
16101;SDS011;56411;52.964;10.540;2022-08-03T00:11:31;9.50;;;5.70;;
16101;SDS011;56411;52.964;10.540;2022-08-03T00:13:58;10.80;;;5.97;;
16101;SDS011;56411;52.964;10.540;2022-08-03T00:16:41;10.65;;;5.72;;
16101;SDS011;56411;52.964;10.540;2022-08-03T00:19:08;11.00;;;6.50;;
16101;SDS011;56411;52.964;10.540;2022-08-03T00:21:35;8.30;;;5.60;;
16101;SDS011;56411;52.964;10.540;2022-08-03T00:24:02;8.98;;;5.32;;
16101;SDS011;56411;52.964;10.540;2022-08-03T00:26:29;10.77;;;6.00;;
16101;SDS011;56411;52.964;10.540;2022-08-03T00:28:56;10.75;;;6.57;;
16101;SDS011;56411;52.964;10.540;2022-08-03T00:31:23;10.52;;;5.90;;
16101;SDS011;56411;52.964;10.540;2022-08-03T00:33:52;10.02;;;5.90;;
16101;SDS011;56411;52.964;10.540;2022-08-03T00:36:18;12.55;;;5.70;;
16101;SDS011;56411;52.964;10.540;2022-08-03T00:38:45;9.73;;;5.80;;
16101;SDS011;56411;52.964;10.540;2022-08-03T00:41:12;9.15;;;5.40;;
16101;SDS011;56411;52.964;10.540;2022-08-03T00:43:39;9.60;;;5.75;;
16101;SDS011;56411;52.964;10.540;2022-08-03T00:46:06;11.02;;;6.00;;
16101;SDS011;56411;52.964;10.540;2022-08-03T00:48:33;9.55;;;5.75;;
16101;SDS011;56411;52.964;10.540;2022-08-03T00:51:02;9.77;;;5.50;;
16101;SDS011;56411;52.964;10.540;2022-08-03T00:53:29;10.18;;;5.68;;
16101;SDS011;56411;52.964;10.540;2022-08-03T00:55:56;8.63;;;6.00;;
16101;SDS011;56411;52.964;10.540;2022-08-03T00:58:23;8.57;;;5.85;;
16101;SDS011;56411;52.964;10.540;2022-08-03T01:00:50;8.98;;;5.70;;
16101;SDS011;56411;52.964;10.540;2022-08-03T01:03:18;8.45;;;5.38;;
16101;SDS011;56411;52.964;10.540;2022-08-03T01:05:48;10.05;;;6.07;;
16101;SDS011;56411;52.964;10.540;2022-08-03T01:08:25;10.02;;;5.50;;
16101;SDS011;56411;52.964;10.540;2022-08-03T01:11:03;10.15;;;5.88;;
16101;SDS011;56411;52.964;10.540;2022-08-03T01:13:37;9.95;;;5.70;;
16101;SDS011;56411;52.964;10.540;2022-08-03T01:16:11;8.55;;;5.28;;
16101;SDS011;56411;52.964;10.540;2022-08-03T01:18:44;10.02;;;5.68;;
16101;SDS011;56411;52.964;10.540;2022-08-03T01:21:13;9.50;;;5.78;;
16101;SDS011;56411;52.964;10.540;2022-08-03T01:23:58;8.95;;;5.53;;
16101;SDS011;56411;52.964;10.540;2022-08-03T01:26:47;8.88;;;5.65;;
16101;SDS011;56411;52.964;10.540;2022-08-03T01:29:40;11.60;;;5.47;;
16101;SDS011;56411;52.964;10.540;2022-08-03T01:32:27;8.73;;;5.85;;
16101;SDS011;56411;52.964;10.540;2022-08-03T01:35:02;10.13;;;5.75;;
16101;SDS011;56411;52.964;10.540;2022-08-03T01:37:35;10.73;;;5.93;;
16101;SDS011;56411;52.964;10.540;2022-08-03T01:40:06;8.75;;;5.53;;
16101;SDS011;56411;52.964;10.540;2022-08-03T01:42:34;9.93;;;5.63;;
16101;SDS011;56411;52.964;10.540;2022-08-03T01:45:05;11.07;;;6.20;;
16101;SDS011;56411;52.964;10.540;2022-08-03T01:47:35;9.18;;;5.50;;
16101;SDS011;56411;52.964;10.540;2022-08-03T01:50:03;9.23;;;5.82;;
16101;SDS011;56411;52.964;10.540;2022-08-03T01:52:32;8.90;;;5.68;;
16101;SDS011;56411;52.964;10.540;2022-08-03T01:54:59;10.48;;;6.00;;
16101;SDS011;56411;52.964;10.540;2022-08-03T01:57:29;11.20;;;5.78;;
16101;SDS011;56411;52.964;10.540;2022-08-03T01:59:56;9.32;;;6.13;;
16101;SDS011;56411;52.964;10.540;2022-08-03T02:02:27;9.40;;;6.13;;
16101;SDS011;56411;52.964;10.540;2022-08-03T02:04:57;9.10;;;6.05;;
16101;SDS011;56411;52.964;10.540;2022-08-03T02:07:26;10.13;;;6.22;;
16101;SDS011;56411;52.964;10.540;2022-08-03T02:09:54;10.30;;;5.70;;
16101;SDS011;56411;52.964;10.540;2022-08-03T02:12:25;9.20;;;6.13;;
16101;SDS011;56411;52.964;10.540;2022-08-03T02:14:54;9.68;;;6.22;;
16101;SDS011;56411;52.964;10.540;2022-08-03T02:17:23;11.13;;;6.55;;
16101;SDS011;56411;52.964;10.540;2022-08-03T02:19:52;9.77;;;5.97;;
16101;SDS011;56411;52.964;10.540;2022-08-03T02:22:21;9.50;;;5.82;;
16101;SDS011;56411;52.964;10.540;2022-08-03T02:24:49;11.75;;;6.22;;
16101;SDS011;56411;52.964;10.540;2022-08-03T02:27:17;10.50;;;6.32;;
16101;SDS011;56411;52.964;10.540;2022-08-03T02:29:47;10.23;;;6.22;;
16101;SDS011;56411;52.964;10.540;2022-08-03T02:32:20;10.18;;;6.55;;
16101;SDS011;56411;52.964;10.540;2022-08-03T02:34:50;9.32;;;5.95;;
16101;SDS011;56411;52.964;10.540;2022-08-03T02:37:22;10.43;;;6.10;;
16101;SDS011;56411;52.964;10.540;2022-08-03T02:39:53;11.07;;;6.35;;
16101;SDS011;56411;52.964;10.540;2022-08-03T02:42:23;10.15;;;6.38;;
16101;SDS011;56411;52.964;10.540;2022-08-03T02:44:52;10.00;;;6.07;;
16101;SDS011;56411;52.964;10.540;2022-08-03T02:47:21;9.98;;;6.43;;
16101;SDS011;56411;52.964;10.540;2022-08-03T02:49:51;12.35;;;6.50;;
16101;SDS011;56411;52.964;10.540;2022-08-03T02:52:23;10.55;;;6.70;;
16101;SDS011;56411;52.964;10.540;2022-08-03T02:54:54;15.07;;;10.75;;
16101;SDS011;56411;52.964;10.540;2022-08-03T02:57:24;15.73;;;12.13;;
16101;SDS011;56411;52.964;10.540;2022-08-03T02:59:53;12.73;;;7.80;;
16101;SDS011;56411;52.964;10.540;2022-08-03T03:02:22;10.10;;;6.47;;
16101;SDS011;56411;52.964;10.540;2022-08-03T03:04:50;11.63;;;6.68;;
16101;SDS011;56411;52.964;10.540;2022-08-03T03:07:20;9.82;;;6.50;;
16101;SDS011;56411;52.964;10.540;2022-08-03T03:09:47;15.00;;;10.40;;
16101;SDS011;56411;52.964;10.540;2022-08-03T03:12:14;17.70;;;11.85;;
16101;SDS011;56411;52.964;10.540;2022-08-03T03:14:42;10.82;;;6.97;;
16101;SDS011;56411;52.964;10.540;2022-08-03T03:17:10;14.32;;;8.23;;
16101;SDS011;56411;52.964;10.540;2022-08-03T03:19:39;14.93;;;7.50;;
16101;SDS011;56411;52.964;10.540;2022-08-03T03:22:09;13.27;;;7.70;;
16101;SDS011;56411;52.964;10.540;2022-08-03T03:24:38;12.18;;;7.30;;
16101;SDS011;56411;52.964;10.540;2022-08-03T03:27:06;10.52;;;6.68;;
16101;SDS011;56411;52.964;10.540;2022-08-03T03:29:34;11.55;;;6.68;;
16101;SDS011;56411;52.964;10.540;2022-08-03T03:32:01;15.00;;;9.18;;
16101;SDS011;56411;52.964;10.540;2022-08-03T03:34:29;14.38;;;8.10;;
16101;SDS011;56411;52.964;10.540;2022-08-03T03:36:56;14.70;;;8.15;;
16101;SDS011;56411;52.964;10.540;2022-08-03T03:39:23;11.20;;;7.65;;
16101;SDS011;56411;52.964;10.540;2022-08-03T03:41:51;12.93;;;8.20;;
16101;SDS011;56411;52.964;10.540;2022-08-03T03:44:19;12.35;;;8.30;;
16101;SDS011;56411;52.964;10.540;2022-08-03T03:46:46;12.20;;;8.13;;
16101;SDS011;56411;52.964;10.540;2022-08-03T03:49:13;12.88;;;8.20;;
16101;SDS011;56411;52.964;10.540;2022-08-03T03:51:40;11.57;;;7.35;;
16101;SDS011;56411;52.964;10.540;2022-08-03T03:54:07;12.25;;;7.72;;
16101;SDS011;56411;52.964;10.540;2022-08-03T03:56:34;11.52;;;7.53;;
16101;SDS011;56411;52.964;10.540;2022-08-03T03:59:02;12.05;;;7.30;;
16101;SDS011;56411;52.964;10.540;2022-08-03T04:01:29;11.80;;;7.15;;
16101;SDS011;56411;52.964;10.540;2022-08-03T04:03:57;10.95;;;7.30;;
16101;SDS011;56411;52.964;10.540;2022-08-03T04:06:44;15.38;;;7.78;;
16101;SDS011;56411;52.964;10.540;2022-08-03T04:09:28;14.32;;;7.70;;
16101;SDS011;56411;52.964;10.540;2022-08-03T04:12:15;12.95;;;7.63;;
16101;SDS011;56411;52.964;10.540;2022-08-03T04:14:44;12.85;;;8.02;;
16101;SDS011;56411;52.964;10.540;2022-08-03T04:17:13;13.88;;;7.38;;
16101;SDS011;56411;52.964;10.540;2022-08-03T04:19:42;13.90;;;7.95;;
16101;SDS011;56411;52.964;10.540;2022-08-03T04:22:14;12.45;;;7.93;;
16101;SDS011;56411;52.964;10.540;2022-08-03T04:24:45;12.60;;;7.38;;
16101;SDS011;56411;52.964;10.540;2022-08-03T04:27:14;12.20;;;7.40;;
16101;SDS011;56411;52.964;10.540;2022-08-03T04:29:48;10.15;;;7.00;;
16101;SDS011;56411;52.964;10.540;2022-08-03T04:32:16;11.73;;;7.50;;
16101;SDS011;56411;52.964;10.540;2022-08-03T04:34:47;11.40;;;6.97;;
16101;SDS011;56411;52.964;10.540;2022-08-03T04:37:17;12.45;;;7.05;;
16101;SDS011;56411;52.964;10.540;2022-08-03T04:39:49;12.40;;;8.25;;
16101;SDS011;56411;52.964;10.540;2022-08-03T04:42:18;11.15;;;7.28;;
16101;SDS011;56411;52.964;10.540;2022-08-03T04:44:48;12.18;;;7.65;;
16101;SDS011;56411;52.964;10.540;2022-08-03T04:47:17;11.95;;;7.68;;
16101;SDS011;56411;52.964;10.540;2022-08-03T04:49:45;11.00;;;7.10;;
16101;SDS011;56411;52.964;10.540;2022-08-03T04:52:12;11.25;;;7.18;;
16101;SDS011;56411;52.964;10.540;2022-08-03T04:54:39;11.52;;;7.63;;
16101;SDS011;56411;52.964;10.540;2022-08-03T04:57:07;11.98;;;7.25;;
16101;SDS011;56411;52.964;10.540;2022-08-03T04:59:35;10.88;;;7.45;;
16101;SDS011;56411;52.964;10.540;2022-08-03T05:02:03;11.32;;;7.45;;
16101;SDS011;56411;52.964;10.540;2022-08-03T05:04:31;11.43;;;7.57;;
16101;SDS011;56411;52.964;10.540;2022-08-03T05:06:57;11.38;;;7.32;;
16101;SDS011;56411;52.964;10.540;2022-08-03T05:09:24;10.77;;;7.10;;
16101;SDS011;56411;52.964;10.540;2022-08-03T05:11:51;10.77;;;7.13;;
16101;SDS011;56411;52.964;10.540;2022-08-03T05:14:19;10.50;;;6.75;;
16101;SDS011;56411;52.964;10.540;2022-08-03T05:16:46;10.57;;;6.40;;
16101;SDS011;56411;52.964;10.540;2022-08-03T05:19:14;11.52;;;7.07;;
16101;SDS011;56411;52.964;10.540;2022-08-03T05:21:41;12.85;;;6.85;;
16101;SDS011;56411;52.964;10.540;2022-08-03T05:24:08;11.10;;;6.68;;
16101;SDS011;56411;52.964;10.540;2022-08-03T05:26:35;11.50;;;6.90;;
16101;SDS011;56411;52.964;10.540;2022-08-03T05:29:03;10.73;;;7.15;;
16101;SDS011;56411;52.964;10.540;2022-08-03T05:31:30;11.70;;;6.82;;
16101;SDS011;56411;52.964;10.540;2022-08-03T05:33:57;10.77;;;6.97;;
16101;SDS011;56411;52.964;10.540;2022-08-03T05:36:25;10.75;;;6.57;;
16101;SDS011;56411;52.964;10.540;2022-08-03T05:38:52;11.57;;;6.90;;
16101;SDS011;56411;52.964;10.540;2022-08-03T05:41:19;12.68;;;6.95;;
16101;SDS011;56411;52.964;10.540;2022-08-03T05:43:46;10.00;;;6.70;;
16101;SDS011;56411;52.964;10.540;2022-08-03T05:46:13;11.48;;;6.95;;
16101;SDS011;56411;52.964;10.540;2022-08-03T05:48:40;11.45;;;7.10;;
16101;SDS011;56411;52.964;10.540;2022-08-03T05:51:09;12.35;;;6.80;;
16101;SDS011;56411;52.964;10.540;2022-08-03T05:53:37;12.65;;;7.00;;
16101;SDS011;56411;52.964;10.540;2022-08-03T05:56:05;10.50;;;6.05;;
16101;SDS011;56411;52.964;10.540;2022-08-03T05:58:32;11.65;;;6.90;;
16101;SDS011;56411;52.964;10.540;2022-08-03T06:00:59;11.75;;;7.03;;
16101;SDS011;56411;52.964;10.540;2022-08-03T06:03:26;11.25;;;6.88;;
16101;SDS011;56411;52.964;10.540;2022-08-03T06:05:53;10.40;;;6.63;;
16101;SDS011;56411;52.964;10.540;2022-08-03T06:08:21;11.55;;;6.57;;
16101;SDS011;56411;52.964;10.540;2022-08-03T06:10:49;10.40;;;7.13;;
16101;SDS011;56411;52.964;10.540;2022-08-03T06:13:16;12.45;;;7.32;;
16101;SDS011;56411;52.964;10.540;2022-08-03T06:15:43;11.40;;;6.78;;
16101;SDS011;56411;52.964;10.540;2022-08-03T06:18:10;11.02;;;6.88;;
16101;SDS011;56411;52.964;10.540;2022-08-03T06:20:37;13.10;;;8.98;;
16101;SDS011;56411;52.964;10.540;2022-08-03T06:23:04;12.93;;;8.88;;
16101;SDS011;56411;52.964;10.540;2022-08-03T06:25:31;11.75;;;7.10;;
16101;SDS011;56411;52.964;10.540;2022-08-03T06:28:00;9.73;;;6.00;;
16101;SDS011;56411;52.964;10.540;2022-08-03T06:30:27;10.63;;;6.20;;
16101;SDS011;56411;52.964;10.540;2022-08-03T06:32:54;10.63;;;5.57;;
16101;SDS011;56411;52.964;10.540;2022-08-03T06:35:21;10.55;;;5.85;;
16101;SDS011;56411;52.964;10.540;2022-08-03T06:37:49;9.57;;;5.20;;
16101;SDS011;56411;52.964;10.540;2022-08-03T06:40:17;9.50;;;5.30;;
16101;SDS011;56411;52.964;10.540;2022-08-03T06:42:52;9.60;;;4.85;;
16101;SDS011;56411;52.964;10.540;2022-08-03T06:45:21;8.70;;;4.80;;
16101;SDS011;56411;52.964;10.540;2022-08-03T06:47:58;8.38;;;4.55;;
16101;SDS011;56411;52.964;10.540;2022-08-03T06:50:26;9.27;;;4.60;;
16101;SDS011;56411;52.964;10.540;2022-08-03T06:52:53;9.77;;;4.68;;
16101;SDS011;56411;52.964;10.540;2022-08-03T06:55:20;8.13;;;4.32;;
16101;SDS011;56411;52.964;10.540;2022-08-03T06:57:47;7.53;;;4.50;;
16101;SDS011;56411;52.964;10.540;2022-08-03T07:00:14;8.50;;;4.78;;
16101;SDS011;56411;52.964;10.540;2022-08-03T07:02:43;7.45;;;4.35;;
16101;SDS011;56411;52.964;10.540;2022-08-03T07:05:10;8.15;;;4.65;;
16101;SDS011;56411;52.964;10.540;2022-08-03T07:07:37;9.07;;;4.30;;
16101;SDS011;56411;52.964;10.540;2022-08-03T07:10:05;8.35;;;4.28;;
16101;SDS011;56411;52.964;10.540;2022-08-03T07:12:34;6.30;;;4.20;;
16101;SDS011;56411;52.964;10.540;2022-08-03T07:15:03;8.20;;;4.60;;
16101;SDS011;56411;52.964;10.540;2022-08-03T07:17:31;6.85;;;4.30;;
16101;SDS011;56411;52.964;10.540;2022-08-03T07:20:01;7.80;;;4.50;;
16101;SDS011;56411;52.964;10.540;2022-08-03T07:22:30;6.32;;;4.10;;
16101;SDS011;56411;52.964;10.540;2022-08-03T07:24:57;9.07;;;4.88;;
16101;SDS011;56411;52.964;10.540;2022-08-03T07:27:24;8.88;;;4.82;;
16101;SDS011;56411;52.964;10.540;2022-08-03T07:29:53;11.68;;;7.50;;
16101;SDS011;56411;52.964;10.540;2022-08-03T07:32:21;12.20;;;6.95;;
16101;SDS011;56411;52.964;10.540;2022-08-03T07:34:49;6.18;;;3.83;;
16101;SDS011;56411;52.964;10.540;2022-08-03T07:37:17;7.20;;;4.20;;
16101;SDS011;56411;52.964;10.540;2022-08-03T07:39:44;8.43;;;4.20;;
16101;SDS011;56411;52.964;10.540;2022-08-03T07:42:11;9.00;;;4.25;;
16101;SDS011;56411;52.964;10.540;2022-08-03T07:44:39;7.82;;;4.10;;
16101;SDS011;56411;52.964;10.540;2022-08-03T07:47:06;8.65;;;4.68;;
16101;SDS011;56411;52.964;10.540;2022-08-03T07:49:33;6.07;;;3.75;;
16101;SDS011;56411;52.964;10.540;2022-08-03T07:52:04;7.95;;;4.07;;
16101;SDS011;56411;52.964;10.540;2022-08-03T07:54:49;6.75;;;4.05;;
16101;SDS011;56411;52.964;10.540;2022-08-03T07:57:16;10.02;;;4.45;;
16101;SDS011;56411;52.964;10.540;2022-08-03T07:59:44;10.43;;;5.88;;
16101;SDS011;56411;52.964;10.540;2022-08-03T08:02:11;8.45;;;4.40;;
16101;SDS011;56411;52.964;10.540;2022-08-03T08:04:38;9.05;;;4.15;;
16101;SDS011;56411;52.964;10.540;2022-08-03T08:07:05;9.07;;;3.95;;
16101;SDS011;56411;52.964;10.540;2022-08-03T08:09:32;5.78;;;3.70;;
16101;SDS011;56411;52.964;10.540;2022-08-03T08:12:01;6.53;;;3.63;;
16101;SDS011;56411;52.964;10.540;2022-08-03T08:14:28;5.68;;;3.40;;
16101;SDS011;56411;52.964;10.540;2022-08-03T08:16:55;6.82;;;3.25;;
16101;SDS011;56411;52.964;10.540;2022-08-03T08:19:22;8.30;;;3.70;;
16101;SDS011;56411;52.964;10.540;2022-08-03T08:21:50;6.28;;;3.38;;
16101;SDS011;56411;52.964;10.540;2022-08-03T08:24:17;8.35;;;3.50;;
16101;SDS011;56411;52.964;10.540;2022-08-03T08:26:44;8.18;;;3.47;;
16101;SDS011;56411;52.964;10.540;2022-08-03T08:29:12;7.55;;;3.28;;
16101;SDS011;56411;52.964;10.540;2022-08-03T08:31:39;5.88;;;2.97;;
16101;SDS011;56411;52.964;10.540;2022-08-03T08:34:06;4.75;;;3.08;;
16101;SDS011;56411;52.964;10.540;2022-08-03T08:36:33;6.50;;;2.97;;
16101;SDS011;56411;52.964;10.540;2022-08-03T08:39:01;6.22;;;3.25;;
16101;SDS011;56411;52.964;10.540;2022-08-03T08:41:28;6.22;;;3.00;;
16101;SDS011;56411;52.964;10.540;2022-08-03T08:43:57;7.65;;;2.90;;
16101;SDS011;56411;52.964;10.540;2022-08-03T08:46:26;5.50;;;2.80;;
16101;SDS011;56411;52.964;10.540;2022-08-03T08:48:54;6.55;;;2.80;;
16101;SDS011;56411;52.964;10.540;2022-08-03T08:51:22;7.93;;;2.75;;
16101;SDS011;56411;52.964;10.540;2022-08-03T08:53:56;6.72;;;2.78;;
16101;SDS011;56411;52.964;10.540;2022-08-03T08:56:26;8.02;;;2.72;;
16101;SDS011;56411;52.964;10.540;2022-08-03T08:58:55;5.20;;;2.88;;
16101;SDS011;56411;52.964;10.540;2022-08-03T09:01:26;6.43;;;2.95;;
16101;SDS011;56411;52.964;10.540;2022-08-03T09:03:53;6.53;;;2.70;;
16101;SDS011;56411;52.964;10.540;2022-08-03T09:06:20;5.90;;;2.50;;
16101;SDS011;56411;52.964;10.540;2022-08-03T09:08:47;5.97;;;2.58;;
16101;SDS011;56411;52.964;10.540;2022-08-03T09:11:15;8.38;;;2.60;;
16101;SDS011;56411;52.964;10.540;2022-08-03T09:13:45;5.50;;;2.60;;
16101;SDS011;56411;52.964;10.540;2022-08-03T09:16:13;7.55;;;2.95;;
16101;SDS011;56411;52.964;10.540;2022-08-03T09:18:43;6.90;;;2.55;;
16101;SDS011;56411;52.964;10.540;2022-08-03T09:21:13;5.72;;;2.83;;
16101;SDS011;56411;52.964;10.540;2022-08-03T09:23:45;6.88;;;2.83;;
16101;SDS011;56411;52.964;10.540;2022-08-03T09:26:18;8.27;;;2.90;;
16101;SDS011;56411;52.964;10.540;2022-08-03T09:28:46;8.88;;;3.20;;
16101;SDS011;56411;52.964;10.540;2022-08-03T09:31:21;7.80;;;3.13;;
16101;SDS011;56411;52.964;10.540;2022-08-03T09:33:57;7.05;;;2.90;;
16101;SDS011;56411;52.964;10.540;2022-08-03T09:36:33;6.95;;;3.00;;
16101;SDS011;56411;52.964;10.540;2022-08-03T09:39:05;6.50;;;2.90;;
16101;SDS011;56411;52.964;10.540;2022-08-03T09:41:35;7.25;;;3.30;;
16101;SDS011;56411;52.964;10.540;2022-08-03T09:44:02;16.20;;;5.03;;
16101;SDS011;56411;52.964;10.540;2022-08-03T09:46:30;10.20;;;3.40;;
16101;SDS011;56411;52.964;10.540;2022-08-03T09:49:11;5.72;;;2.60;;
16101;SDS011;56411;52.964;10.540;2022-08-03T09:51:38;6.00;;;2.88;;
16101;SDS011;56411;52.964;10.540;2022-08-03T09:54:06;6.28;;;2.70;;
16101;SDS011;56411;52.964;10.540;2022-08-03T09:56:36;9.05;;;2.50;;
16101;SDS011;56411;52.964;10.540;2022-08-03T09:59:08;8.45;;;2.53;;
16101;SDS011;56411;52.964;10.540;2022-08-03T10:01:37;6.30;;;2.80;;
16101;SDS011;56411;52.964;10.540;2022-08-03T10:04:11;6.95;;;2.75;;
16101;SDS011;56411;52.964;10.540;2022-08-03T10:06:42;8.13;;;3.10;;
16101;SDS011;56411;52.964;10.540;2022-08-03T10:09:10;9.27;;;2.97;;
16101;SDS011;56411;52.964;10.540;2022-08-03T10:11:38;6.35;;;2.75;;
16101;SDS011;56411;52.964;10.540;2022-08-03T10:14:07;7.15;;;2.95;;
16101;SDS011;56411;52.964;10.540;2022-08-03T10:16:35;7.53;;;2.97;;
16101;SDS011;56411;52.964;10.540;2022-08-03T10:19:04;7.15;;;2.88;;
16101;SDS011;56411;52.964;10.540;2022-08-03T10:21:33;9.07;;;3.20;;
16101;SDS011;56411;52.964;10.540;2022-08-03T10:24:03;6.07;;;2.90;;
16101;SDS011;56411;52.964;10.540;2022-08-03T10:26:32;9.05;;;3.03;;
16101;SDS011;56411;52.964;10.540;2022-08-03T10:29:01;5.70;;;3.00;;
16101;SDS011;56411;52.964;10.540;2022-08-03T10:31:33;7.00;;;3.13;;
16101;SDS011;56411;52.964;10.540;2022-08-03T10:34:03;8.63;;;3.65;;
16101;SDS011;56411;52.964;10.540;2022-08-03T10:36:33;8.05;;;3.30;;
16101;SDS011;56411;52.964;10.540;2022-08-03T10:39:03;7.95;;;3.20;;
16101;SDS011;56411;52.964;10.540;2022-08-03T10:41:31;7.50;;;3.10;;
16101;SDS011;56411;52.964;10.540;2022-08-03T10:44:02;6.13;;;3.00;;
16101;SDS011;56411;52.964;10.540;2022-08-03T10:46:33;8.93;;;3.60;;
16101;SDS011;56411;52.964;10.540;2022-08-03T10:49:02;7.28;;;3.03;;
16101;SDS011;56411;52.964;10.540;2022-08-03T10:51:30;5.70;;;2.88;;
16101;SDS011;56411;52.964;10.540;2022-08-03T10:53:58;5.97;;;2.92;;
16101;SDS011;56411;52.964;10.540;2022-08-03T10:56:38;7.82;;;3.15;;
16101;SDS011;56411;52.964;10.540;2022-08-03T11:05:43;5.03;;;2.45;;
16101;SDS011;56411;52.964;10.540;2022-08-03T11:08:29;6.50;;;2.58;;
16101;SDS011;56411;52.964;10.540;2022-08-03T11:11:02;6.57;;;2.75;;
16101;SDS011;56411;52.964;10.540;2022-08-03T11:13:57;7.35;;;2.85;;
16101;SDS011;56411;52.964;10.540;2022-08-03T11:16:27;5.63;;;2.50;;
16101;SDS011;56411;52.964;10.540;2022-08-03T11:18:56;5.68;;;2.58;;
16101;SDS011;56411;52.964;10.540;2022-08-03T11:27:30;5.38;;;2.70;;
16101;SDS011;56411;52.964;10.540;2022-08-03T11:30:05;5.05;;;2.35;;
16101;SDS011;56411;52.964;10.540;2022-08-03T11:32:50;5.63;;;2.60;;
16101;SDS011;56411;52.964;10.540;2022-08-03T11:35:28;8.65;;;2.70;;
16101;SDS011;56411;52.964;10.540;2022-08-03T11:38:03;5.68;;;2.58;;
16101;SDS011;56411;52.964;10.540;2022-08-03T11:40:32;4.05;;;2.05;;
16101;SDS011;56411;52.964;10.540;2022-08-03T11:43:02;5.68;;;2.40;;
16101;SDS011;56411;52.964;10.540;2022-08-03T11:45:30;6.30;;;2.30;;
16101;SDS011;56411;52.964;10.540;2022-08-03T11:47:57;6.35;;;2.55;;
16101;SDS011;56411;52.964;10.540;2022-08-03T11:50:38;4.30;;;2.20;;
16101;SDS011;56411;52.964;10.540;2022-08-03T11:53:11;6.10;;;2.38;;
16101;SDS011;56411;52.964;10.540;2022-08-03T11:55:42;4.85;;;2.22;;
16101;SDS011;56411;52.964;10.540;2022-08-03T11:58:18;6.40;;;2.40;;
16101;SDS011;56411;52.964;10.540;2022-08-03T12:00:48;6.65;;;2.30;;
16101;SDS011;56411;52.964;10.540;2022-08-03T12:03:16;5.00;;;2.17;;
16101;SDS011;56411;52.964;10.540;2022-08-03T12:05:45;6.63;;;2.40;;
16101;SDS011;56411;52.964;10.540;2022-08-03T12:08:14;6.43;;;2.45;;
16101;SDS011;56411;52.964;10.540;2022-08-03T12:10:46;7.85;;;2.60;;
16101;SDS011;56411;52.964;10.540;2022-08-03T12:13:15;5.55;;;2.10;;
16101;SDS011;56411;52.964;10.540;2022-08-03T12:15:49;3.33;;;2.10;;
16101;SDS011;56411;52.964;10.540;2022-08-03T12:18:17;6.97;;;2.35;;
16101;SDS011;56411;52.964;10.540;2022-08-03T12:20:46;3.95;;;2.20;;
16101;SDS011;56411;52.964;10.540;2022-08-03T12:23:15;7.65;;;2.20;;
16101;SDS011;56411;52.964;10.540;2022-08-03T12:25:43;5.70;;;2.30;;
16101;SDS011;56411;52.964;10.540;2022-08-03T12:28:13;7.47;;;2.30;;
16101;SDS011;56411;52.964;10.540;2022-08-03T12:30:44;6.75;;;2.10;;
16101;SDS011;56411;52.964;10.540;2022-08-03T12:33:20;4.55;;;2.17;;
16101;SDS011;56411;52.964;10.540;2022-08-03T12:36:01;6.18;;;2.15;;
16101;SDS011;56411;52.964;10.540;2022-08-03T12:38:38;5.80;;;2.20;;
16101;SDS011;56411;52.964;10.540;2022-08-03T12:41:05;4.68;;;2.10;;
16101;SDS011;56411;52.964;10.540;2022-08-03T12:43:37;8.63;;;2.20;;
16101;SDS011;56411;52.964;10.540;2022-08-03T12:46:15;7.18;;;2.28;;
16101;SDS011;56411;52.964;10.540;2022-08-03T12:48:58;5.32;;;1.95;;
16101;SDS011;56411;52.964;10.540;2022-08-03T12:51:58;6.70;;;2.08;;
16101;SDS011;56411;52.964;10.540;2022-08-03T12:54:26;7.40;;;2.10;;
16101;SDS011;56411;52.964;10.540;2022-08-03T12:56:56;5.80;;;2.17;;
16101;SDS011;56411;52.964;10.540;2022-08-03T12:59:23;4.93;;;1.92;;
16101;SDS011;56411;52.964;10.540;2022-08-03T13:01:52;5.28;;;2.00;;
16101;SDS011;56411;52.964;10.540;2022-08-03T13:04:28;5.20;;;2.13;;
16101;SDS011;56411;52.964;10.540;2022-08-03T13:06:56;6.85;;;2.10;;
16101;SDS011;56411;52.964;10.540;2022-08-03T13:09:24;5.40;;;2.10;;
16101;SDS011;56411;52.964;10.540;2022-08-03T13:12:03;4.22;;;2.17;;
16101;SDS011;56411;52.964;10.540;2022-08-03T13:14:31;6.43;;;2.35;;
16101;SDS011;56411;52.964;10.540;2022-08-03T13:16:59;7.03;;;2.35;;
16101;SDS011;56411;52.964;10.540;2022-08-03T13:19:27;4.72;;;2.17;;
16101;SDS011;56411;52.964;10.540;2022-08-03T13:21:53;4.95;;;1.88;;
16101;SDS011;56411;52.964;10.540;2022-08-03T13:24:20;5.93;;;1.98;;
16101;SDS011;56411;52.964;10.540;2022-08-03T13:26:47;5.95;;;2.20;;
16101;SDS011;56411;52.964;10.540;2022-08-03T13:29:15;4.90;;;2.13;;
16101;SDS011;56411;52.964;10.540;2022-08-03T13:31:42;4.95;;;2.00;;
16101;SDS011;56411;52.964;10.540;2022-08-03T13:34:11;6.28;;;2.05;;
16101;SDS011;56411;52.964;10.540;2022-08-03T13:36:37;4.03;;;2.10;;
16101;SDS011;56411;52.964;10.540;2022-08-03T13:39:04;7.65;;;2.25;;
16101;SDS011;56411;52.964;10.540;2022-08-03T13:41:31;5.03;;;2.20;;
16101;SDS011;56411;52.964;10.540;2022-08-03T13:43:58;6.95;;;2.20;;
16101;SDS011;56411;52.964;10.540;2022-08-03T13:46:25;7.82;;;2.15;;
16101;SDS011;56411;52.964;10.540;2022-08-03T13:48:52;6.40;;;2.17;;
16101;SDS011;56411;52.964;10.540;2022-08-03T13:51:21;8.68;;;2.40;;
16101;SDS011;56411;52.964;10.540;2022-08-03T13:53:48;4.72;;;1.90;;
16101;SDS011;56411;52.964;10.540;2022-08-03T13:56:15;4.03;;;1.80;;
16101;SDS011;56411;52.964;10.540;2022-08-03T13:58:42;5.43;;;2.00;;
16101;SDS011;56411;52.964;10.540;2022-08-03T14:01:09;6.35;;;2.05;;
16101;SDS011;56411;52.964;10.540;2022-08-03T14:03:36;4.28;;;2.10;;
16101;SDS011;56411;52.964;10.540;2022-08-03T14:06:03;3.78;;;1.83;;
16101;SDS011;56411;52.964;10.540;2022-08-03T14:08:31;6.88;;;2.28;;
16101;SDS011;56411;52.964;10.540;2022-08-03T14:10:58;5.97;;;2.00;;
16101;SDS011;56411;52.964;10.540;2022-08-03T14:13:25;4.80;;;2.20;;
16101;SDS011;56411;52.964;10.540;2022-08-03T14:15:52;3.88;;;2.00;;
16101;SDS011;56411;52.964;10.540;2022-08-03T14:18:20;4.18;;;2.20;;
16101;SDS011;56411;52.964;10.540;2022-08-03T14:20:47;4.35;;;2.00;;
16101;SDS011;56411;52.964;10.540;2022-08-03T14:23:14;4.95;;;2.15;;
16101;SDS011;56411;52.964;10.540;2022-08-03T14:25:43;6.65;;;2.10;;
16101;SDS011;56411;52.964;10.540;2022-08-03T14:28:10;5.35;;;2.38;;
16101;SDS011;56411;52.964;10.540;2022-08-03T14:30:37;5.78;;;2.10;;
16101;SDS011;56411;52.964;10.540;2022-08-03T14:33:04;6.43;;;2.05;;
16101;SDS011;56411;52.964;10.540;2022-08-03T14:35:31;5.00;;;2.30;;
16101;SDS011;56411;52.964;10.540;2022-08-03T14:37:58;6.35;;;2.33;;
16101;SDS011;56411;52.964;10.540;2022-08-03T14:40:25;4.13;;;2.00;;
16101;SDS011;56411;52.964;10.540;2022-08-03T14:42:53;6.97;;;2.22;;
16101;SDS011;56411;52.964;10.540;2022-08-03T14:45:20;4.35;;;1.92;;
16101;SDS011;56411;52.964;10.540;2022-08-03T14:47:47;6.55;;;2.20;;
16101;SDS011;56411;52.964;10.540;2022-08-03T14:50:15;4.90;;;1.92;;
16101;SDS011;56411;52.964;10.540;2022-08-03T14:52:42;6.60;;;1.83;;
16101;SDS011;56411;52.964;10.540;2022-08-03T14:55:09;7.28;;;1.80;;